Latest Weather Observations for Fitzroy Crossing

IDW60801

Issued at 10:05 pm WST Tuesday 30 September 2014 (issued every 30 minutes, with the page automatically refreshed every 10 minutes)

About weather observations | Map of weather stations | Latest weather observations for WA | Other Formats
Station Details ID: 003093 Name: FITZROY CROSSING AERO Lat: -18.18 Lon: 125.56 Height: 114.5 m
Data from the previous 72 hours. | See also: Recent months at Fitzroy Crossing
Date/Time
WST
Temp
°C
App
Temp
°C
Dew
Point
Rel
Hum
%
Delta-T
°C
Wind Press
QNH
hPa
Press
MSL
hPa
Rain
since 9 am
mm
Dir
 
Spd
km/h
Gust
km/h
Spd
kts
Gust
kts
30/10:00pm 30.3 28.5 14.4 38 9.7 WNW 17 22 9 12 1010.7 1010.0 0.0
30/09:30pm 30.9 27.5 11.3 30 11.4 WNW 20 28 11 15 1010.5 1009.8 0.0
30/09:00pm 30.0 28.5 3.1 18 13.6 CALM 0 0 0 0 1010.3 1009.6 0.0
30/08:30pm 31.4 29.8 2.6 16 14.6 CALM 0 0 0 0 1010.2 1009.5 0.0
30/08:00pm 31.7 30.2 2.8 16 14.7 CALM 0 0 0 0 1010.1 1009.4 0.0
30/07:30pm 31.5 29.8 1.8 15 14.8 CALM 0 0 0 0 1009.8 1009.1 0.0
30/07:00pm 33.3 31.8 3.2 15 15.6 CALM 0 0 0 0 1009.6 1008.9 0.0
30/06:30pm 33.8 32.2 2.6 14 16.0 CALM 0 0 0 0 1009.2 1008.5 0.0
30/06:00pm 35.6 33.9 1.8 12 17.4 CALM 0 0 0 0 1008.8 1008.1 0.0
30/05:30pm 37.4 35.1 0.7 10 18.7 NE 2 6 1 3 1008.3 1007.6 0.0
30/05:00pm 39.0 35.7 0.4 9 19.8 N 7 11 4 6 1007.9 1007.2 0.0
30/04:30pm 39.5 35.2 0.8 9 20.0 NNE 13 19 7 10 1007.7 1007.0 0.0
30/04:00pm 40.0 35.7 1.1 9 20.3 NE 13 20 7 11 1007.6 1006.9 0.0
30/03:30pm 39.8 34.7 1.0 9 20.1 NNE 17 26 9 14 1007.4 1006.7 0.0
30/03:00pm 40.3 36.4 1.4 9 20.4 ENE 11 19 6 10 1007.5 1006.8 0.0
30/02:30pm 40.2 34.7 -2.1 7 21.0 NE 17 28 9 15 1007.8 1007.1 0.0
30/02:00pm 40.7 35.6 -1.8 7 21.3 ENE 15 26 8 14 1007.9 1007.2 0.0
30/01:30pm 39.9 34.3 1.1 9 20.2 NNE 20 32 11 17 1008.1 1007.4 0.0
30/01:00pm 40.2 34.1 2.8 10 20.0 N 24 28 13 15 1008.4 1007.7 0.0
30/12:30pm 39.1 36.2 4.5 12 18.9 NW 9 17 5 9 1008.9 1008.2 0.0
30/12:00pm 38.5 34.9 5.2 13 18.3 NNW 13 24 7 13 1009.5 1008.8 0.0
30/11:30am 37.2 34.6 6.3 15 17.1 NNE 9 17 5 9 1010.1 1009.4 0.0
30/11:00am 36.7 33.1 6.8 16 16.7 N 15 20 8 11 1010.6 1009.9 0.0
30/10:30am 36.3 33.4 6.5 16 16.5 NE 11 20 6 11 1011.1 1010.4 0.0
30/10:00am 36.0 34.2 8.0 18 15.9 ENE 7 20 4 11 1011.4 1010.7 0.0
30/09:30am 34.4 32.5 8.9 21 14.5 NNW 9 17 5 9 1011.6 1010.9 0.0
30/09:00am 33.0 31.5 9.1 23 13.6 WNW 7 13 4 7 1011.9 1011.2 0.0
30/08:30am 31.7 29.9 9.3 25 12.7 WSW 9 15 5 8 1011.8 1011.1 0.0
30/08:00am 30.3 28.4 11.8 32 10.8 NW 13 17 7 9 1011.9 1011.2 0.0
30/07:30am 29.1 26.7 12.5 36 9.8 NW 17 20 9 11 1011.8 1011.1 0.0
30/07:00am 27.5 26.0 14.2 44 8.0 NNW 15 20 8 11 1011.6 1010.9 0.0
30/06:30am 24.4 24.2 13.6 51 6.3 N 7 11 4 6 1011.4 1010.7 0.0
30/06:00am 24.2 22.7 14.3 54 5.9 NW 15 19 8 10 1010.9 1010.2 0.0
30/05:30am 21.1 18.2 12.8 59 4.7 WNW 20 20 11 11 1010.6 1009.9 0.0
30/05:00am 21.4 20.1 12.5 57 5.1 NNW 11 13 6 7 1010.7 1010.0 0.0
30/04:30am 23.5 23.0 13.7 54 5.7 N 9 11 5 6 1010.4 1009.7 0.0
30/04:00am 23.4 22.0 13.3 53 5.9 N 13 15 7 8 1010.2 1009.5 0.0
30/03:30am 23.7 23.5 13.6 53 5.9 N 7 11 4 6 1010.0 1009.3 0.0
30/03:00am 23.9 23.6 13.4 51 6.1 N 7 11 4 6 1009.8 1009.1 0.0
30/02:30am 25.0 24.0 13.5 48 6.8 NW 11 17 6 9 1009.7 1009.0 0.0
30/02:00am 25.7 24.3 13.5 46 7.2 NW 13 17 7 9 1009.5 1008.8 0.0
30/01:30am 25.2 24.4 12.8 46 7.2 WNW 9 13 5 7 1009.6 1008.9 0.0
30/01:00am 25.8 24.8 12.3 43 7.8 NW 9 13 5 7 1009.7 1009.0 0.0
30/12:30am 27.0 24.9 12.3 40 8.5 WNW 15 19 8 10 1009.7 1009.0 0.0
30/12:00am 27.3 24.1 10.1 34 9.7 NW 17 22 9 12 1009.9 1009.2 0.0
 
Date/Time
WST
Temp
°C
App
Temp
°C
Dew
Point
Rel
Hum
%
Delta-T
°C
Wind Press
QNH
hPa
Press
MSL
hPa
Rain
since 9 am
mm
Dir
 
Spd
km/h
Gust
km/h
Spd
kts
Gust
kts
29/11:30pm 26.7 23.7 6.2 27 10.7 NW 11 15 6 8 1010.1 1009.4 0.0
29/11:00pm 26.1 22.1 2.7 22 11.5 NNW 13 15 7 8 1010.2 1009.5 0.0
29/10:30pm 26.3 23.7 0.9 19 12.1 N 4 7 2 4 1010.3 1009.6 0.0
29/10:00pm 27.1 23.5 0.8 18 12.6 SW 9 11 5 6 1010.2 1009.5 0.0
29/09:30pm 26.6 23.3 0.4 18 12.4 WNW 7 9 4 5 1010.2 1009.5 0.0
29/09:00pm 26.7 23.6 0.4 18 12.4 NE 6 7 3 4 1010.2 1009.5 0.0
29/08:30pm 29.0 27.1 0.7 16 13.7 CALM 0 0 0 0 1010.1 1009.4 0.0
29/08:00pm 29.4 27.6 1.0 16 13.8 CALM 0 0 0 0 1009.9 1009.2 0.0
29/07:30pm 30.3 28.6 1.7 16 14.2 CALM 0 6 0 3 1009.6 1008.9 0.0
29/07:00pm 32.3 30.5 1.4 14 15.4 CALM 0 0 0 0 1009.2 1008.5 0.0
29/06:30pm 34.2 32.2 -0.4 11 17.0 CALM 0 0 0 0 1008.8 1008.1 0.0
29/06:00pm 34.9 32.7 -1.2 10 17.6 CALM 0 0 0 0 1008.3 1007.6 0.0
29/05:30pm 37.3 35.2 -0.9 9 19.0 CALM 0 0 0 0 1007.9 1007.2 0.0
29/05:00pm 39.0 36.5 -1.2 8 20.1 SSW 2 6 1 3 1007.5 1006.8 0.0
29/04:30pm 39.6 35.0 -0.8 8 20.4 W 13 17 7 9 1007.3 1006.6 0.0
29/04:00pm 39.9 34.7 -2.4 7 20.9 NNW 15 26 8 14 1007.1 1006.4 0.0
29/03:30pm 40.3 36.9 -2.1 7 21.0 ENE 6 13 3 7 1007.0 1006.3 0.0
29/03:00pm 40.6 36.3 -1.9 7 21.3 SSE 11 20 6 11 1007.1 1006.4 0.0
29/02:30pm 40.5 35.8 -1.9 7 21.1 ENE 13 22 7 12 1007.1 1006.4 0.0
29/02:00pm 40.1 34.6 -2.2 7 21.0 N 17 28 9 15 1007.5 1006.8 0.0
29/01:30pm 40.0 35.2 -2.3 7 20.9 N 13 26 7 14 1007.8 1007.1 0.0
29/01:00pm 40.2 37.0 -0.3 8 20.7 WNW 6 19 3 10 1008.2 1007.5 0.0
29/12:30pm 40.0 34.7 -0.5 8 20.6 NNW 17 32 9 17 1008.6 1007.9 0.0
29/12:00pm 39.1 34.1 -1.1 8 20.1 N 15 30 8 16 1009.1 1008.4 0.0
29/11:30am 38.7 33.9 0.2 9 19.6 N 15 24 8 13 1009.7 1009.0 0.0
29/11:00am 37.9 33.2 1.0 10 19.0 NNE 15 22 8 12 1010.4 1009.7 0.0
29/10:30am 36.7 32.6 0.1 10 18.4 NE 11 22 6 12 1010.9 1010.2 0.0
29/10:00am 36.2 33.1 1.1 11 17.9 N 7 9 4 5 1011.2 1010.5 0.0
29/09:30am 35.0 31.5 1.4 12 17.1 E 9 11 5 6 1011.6 1010.9 0.0
29/09:00am 33.8 30.4 1.6 13 16.3 SSE 9 15 5 8 1011.7 1011.0 0.0
29/08:30am 32.5 28.3 1.6 14 15.5 S 13 17 7 9 1011.8 1011.1 0.0
29/08:00am 30.8 27.6 2.9 17 14.2 S 9 15 5 8 1011.8 1011.1 0.0
29/07:30am 29.0 24.9 2.3 18 13.2 SSW 13 17 7 9 1011.7 1011.0 0.0
29/07:00am 27.6 23.4 1.9 19 12.5 S 13 17 7 9 1011.7 1011.0 0.0
29/06:30am 23.9 22.6 4.3 28 9.7 CALM 0 6 0 3 1011.6 1010.9 0.0
29/06:00am 23.2 20.3 2.7 26 9.9 SW 7 9 4 5 1011.2 1010.5 0.0
29/05:30am 22.6 19.7 2.7 27 9.5 SW 7 9 4 5 1010.9 1010.2 0.0
29/05:00am 22.1 19.4 2.8 28 9.2 W 6 7 3 4 1010.7 1010.0 0.0
29/04:30am 21.4 18.7 2.6 29 8.9 WNW 6 7 3 4 1010.4 1009.7 0.0
29/04:00am 21.4 18.1 2.6 29 8.9 NNW 9 13 5 7 1010.2 1009.5 0.0
29/03:30am 21.8 18.5 2.5 28 9.1 N 9 15 5 8 1010.0 1009.3 0.0
29/03:00am 25.9 21.9 2.6 22 11.4 SSE 13 19 7 10 1009.6 1008.9 0.0
29/02:30am 26.4 22.4 3.0 22 11.6 S 13 15 7 8 1009.4 1008.7 0.0
29/02:00am 26.3 22.3 2.9 22 11.5 S 13 15 7 8 1009.5 1008.8 0.0
29/01:30am 27.0 22.6 2.8 21 12.0 SSW 15 17 8 9 1009.6 1008.9 0.0
29/01:00am 27.6 23.2 2.6 20 12.4 SSW 15 17 8 9 1009.8 1009.1 0.0
29/12:30am 28.1 24.1 3.0 20 12.5 SSW 13 15 7 8 1010.2 1009.5 0.0
29/12:00am 28.9 24.6 3.0 19 13.0 SSW 15 17 8 9 1010.4 1009.7 0.0
 
Date/Time
WST
Temp
°C
App
Temp
°C
Dew
Point
Rel
Hum
%
Delta-T
°C
Wind Press
QNH
hPa
Press
MSL
hPa
Rain
since 9 am
mm
Dir
 
Spd
km/h
Gust
km/h
Spd
kts
Gust
kts
28/11:30pm 26.6 22.8 3.8 23 11.4 SSW 13 15 7 8 1010.7 1010.0 0.0
28/11:00pm 26.4 22.5 3.6 23 11.4 SSW 13 26 7 14 1010.9 1010.2 0.0
28/10:30pm 27.1 24.6 3.6 22 11.8 NW 6 7 3 4 1010.9 1010.2 0.0
28/10:00pm 26.6 23.9 3.8 23 11.4 NNW 7 9 4 5 1011.1 1010.4 0.0
28/09:30pm 26.7 23.9 3.2 22 11.7 NNW 7 9 4 5 1011.2 1010.5 0.0
28/09:00pm 28.6 25.3 2.7 19 12.9 NNW 9 9 5 5 1011.2 1010.5 0.0
28/08:30pm 29.2 26.4 3.2 19 13.1 N 7 9 4 5 1011.0 1010.3 0.0
28/08:00pm 29.4 26.1 2.6 18 13.4 N 9 11 5 6 1010.8 1010.1 0.0
28/07:30pm 30.0 27.0 2.3 17 13.8 N 7 9 4 5 1010.5 1009.8 0.0
28/07:00pm 31.5 28.8 2.7 16 14.6 NNW 6 6 3 3 1010.2 1009.5 0.0
28/06:30pm 32.9 29.9 0.9 13 15.9 WSW 6 7 3 4 1009.9 1009.2 0.0
28/06:00pm 34.0 31.1 1.7 13 16.4 SW 6 7 3 4 1009.5 1008.8 0.0
28/05:30pm 36.1 33.1 1.0 11 17.8 SSW 6 9 3 5 1009.2 1008.5 0.0
28/05:00pm 37.2 33.4 1.8 11 18.3 S 11 17 6 9 1009.1 1008.4 0.0
28/04:30pm 38.3 34.4 1.3 10 19.1 W 11 15 6 8 1008.9 1008.2 0.0
28/04:00pm 38.2 34.7 1.3 10 19.1 WNW 9 15 5 8 1008.9 1008.2 0.0
28/03:30pm 38.9 35.9 1.8 10 19.4 SW 7 20 4 11 1008.9 1008.2 0.0
28/03:00pm 38.4 34.9 1.4 10 19.2 SSW 9 15 5 8 1009.1 1008.4 0.0
28/02:30pm 38.6 35.2 1.6 10 19.2 E 9 15 5 8 1009.6 1008.9 0.0
28/02:00pm 38.5 34.7 1.5 10 19.2 SW 11 19 6 10 1009.8 1009.1 0.0
28/01:30pm 38.7 33.7 1.6 10 19.3 SW 17 26 9 14 1010.3 1009.6 0.0
28/01:00pm 37.9 34.6 2.4 11 18.6 WSW 9 19 5 10 1010.8 1010.1 0.0
28/12:30pm 37.2 32.3 1.8 11 18.3 S 17 24 9 13 1011.4 1010.7 0.0
28/12:00pm 36.7 32.3 2.7 12 17.8 SSW 15 24 8 13 1012.0 1011.3 0.0
28/11:30am 36.2 31.5 3.4 13 17.3 SE 17 24 9 13 1012.6 1011.9 0.0
28/11:00am 35.6 30.5 3.0 13 17.0 S 19 28 10 15 1013.3 1012.7 0.0
28/10:30am 34.0 29.0 4.6 16 15.6 SW 20 28 11 15 1013.9 1013.2 0.0
28/10:00am 34.4 30.8 5.0 16 15.7 SSW 13 20 7 11 1014.4 1013.7 0.0
28/09:30am 32.9 29.4 5.5 18 14.7 WSW 13 20 7 11 1014.5 1013.8 0.0
28/09:00am 31.4 28.5 6.5 21 13.4 SW 11 20 6 11 1014.9 1014.2 0.0
28/08:30am 30.7 28.6 6.6 22 13.0 W 7 13 4 7 1015.3 1014.6 0.0
28/08:00am 29.1 27.2 7.6 26 11.7 W 7 13 4 7 1015.5 1014.8 0.0
28/07:30am 28.2 25.5 9.0 30 10.6 WNW 13 17 7 9 1015.4 1014.7 0.0
28/07:00am 26.5 24.7 9.4 34 9.4 NW 9 11 5 6 1015.2 1014.5 0.0
28/06:30am 24.4 23.7 9.9 40 8.0 N 4 11 2 6 1014.9 1014.2 0.0
28/06:00am 22.4 19.9 9.6 44 6.9 WNW 13 15 7 8 1014.4 1013.7 0.0
28/05:30am 21.7 19.1 9.3 45 6.7 NW 13 17 7 9 1014.1 1013.4 0.0
28/05:00am 23.1 19.6 8.8 40 7.7 WNW 17 20 9 11 1013.7 1013.1 0.0
28/04:30am 23.8 20.8 7.8 36 8.5 WNW 13 15 7 8 1013.5 1012.9 0.0
28/04:00am 24.8 22.7 8.3 35 8.9 W 9 13 5 7 1013.4 1012.8 0.0
28/03:30am 26.3 25.2 8.3 32 9.8 N 4 11 2 6 1013.0 1012.4 0.0
28/03:00am 26.9 24.8 8.4 31 10.1 WNW 9 19 5 10 1012.6 1011.9 0.0
28/02:30am 27.2 26.3 9.1 32 10.0 SSW 4 11 2 6 1012.4 1011.7 0.0
28/02:00am 27.3 23.5 9.2 32 10.0 SW 19 32 10 17 1012.2 1011.5 0.0
28/01:30am 28.2 22.8 9.5 31 10.4 WSW 28 35 15 19 1011.7 1011.0 0.0
28/01:00am 28.8 23.2 10.0 31 10.6 W 30 39 16 21 1011.8 1011.1 0.0
28/12:30am 28.9 24.0 10.1 31 10.6 W 26 37 14 20 1012.1 1011.4 0.0
28/12:00am 29.1 23.8 9.8 30 10.9 W 28 35 15 19 1012.3 1011.6 0.0
 
Date/Time
WST
Temp
°C
App
Temp
°C
Dew
Point
Rel
Hum
%
Delta-T
°C
Wind Press
QNH
hPa
Press
MSL
hPa
Rain
since 9 am
mm
Dir
 
Spd
km/h
Gust
km/h
Spd
kts
Gust
kts
27/11:30pm 27.5 23.7 7.4 28 10.8 NW 17 20 9 11 1012.7 1012.0 0.0
27/11:00pm 29.4 25.0 7.3 25 12.0 W 20 28 11 15 1012.9 1012.3 0.0
27/10:30pm 26.8 24.8 4.6 24 11.3 SW 4 7 2 4 1012.9 1012.3 0.0

Other Formats:

Comma delimited format used in spreadsheet applications
http://www.bom.gov.au/fwo/IDW60801/IDW60801.94206.axf

JavaScript Object Notation format (JSON) in row-major order
http://www.bom.gov.au/fwo/IDW60801/IDW60801.94206.json